createdAt,value
2023-05-20T00:02:13.345Z,15.92
2023-05-20T00:04:42.301Z,15.92
2023-05-20T00:07:09.302Z,16.00
2023-05-20T00:09:36.152Z,15.97
2023-05-20T00:12:03.235Z,15.93
2023-05-20T00:14:30.112Z,15.87
2023-05-20T00:16:57.033Z,15.81
2023-05-20T00:19:24.112Z,15.82
2023-05-20T00:21:51.011Z,15.86
2023-05-20T00:24:17.866Z,15.87
2023-05-20T00:26:44.858Z,15.91
2023-05-20T00:29:11.794Z,15.88
2023-05-20T00:31:38.971Z,15.82
2023-05-20T00:34:05.973Z,15.81
2023-05-20T00:36:32.900Z,15.85
2023-05-20T00:38:59.779Z,15.88
2023-05-20T00:41:26.790Z,15.86
2023-05-20T00:43:55.118Z,15.82
2023-05-20T00:46:25.532Z,15.74
2023-05-20T00:48:52.859Z,15.78
2023-05-20T00:51:20.736Z,15.70
2023-05-20T00:53:47.877Z,15.66
2023-05-20T00:56:14.742Z,15.70
2023-05-20T00:58:41.827Z,15.73
2023-05-20T01:01:08.888Z,15.70
2023-05-20T01:03:36.026Z,15.64
2023-05-20T01:06:03.340Z,15.60
2023-05-20T01:08:30.271Z,15.73
2023-05-20T01:11:07.191Z,15.67
2023-05-20T01:13:39.788Z,15.65
2023-05-20T01:16:08.221Z,15.79
2023-05-20T01:18:36.104Z,15.69
2023-05-20T01:21:03.330Z,15.59
2023-05-20T01:23:40.926Z,15.57
2023-05-20T01:26:08.491Z,15.57
2023-05-20T01:28:36.929Z,15.53
2023-05-20T01:31:05.922Z,15.44
2023-05-20T01:33:36.612Z,15.37
2023-05-20T01:36:03.717Z,15.43
2023-05-20T01:38:31.275Z,15.51
2023-05-20T01:40:58.647Z,15.53
2023-05-20T01:43:27.096Z,15.46
2023-05-20T01:45:54.002Z,15.56
2023-05-20T01:48:20.958Z,15.38
2023-05-20T01:50:47.799Z,15.36
2023-05-20T01:53:14.812Z,15.38
2023-05-20T01:55:41.682Z,15.33
2023-05-20T01:58:08.548Z,15.29
2023-05-20T02:00:36.437Z,15.17
2023-05-20T02:03:03.896Z,15.29
2023-05-20T02:05:31.144Z,15.17
2023-05-20T02:07:58.197Z,15.28
2023-05-20T02:10:25.102Z,15.24
2023-05-20T02:12:52.073Z,15.24
2023-05-20T02:15:18.991Z,15.12
2023-05-20T02:17:47.282Z,15.12
2023-05-20T02:20:14.374Z,15.17
2023-05-20T02:22:41.284Z,15.09
2023-05-20T02:25:08.736Z,15.16
2023-05-20T02:27:35.690Z,15.17
2023-05-20T02:30:02.574Z,14.98
2023-05-20T02:32:29.782Z,15.10
2023-05-20T02:34:56.825Z,15.07
2023-05-20T02:37:23.767Z,15.00
2023-05-20T02:39:50.730Z,14.96
2023-05-20T02:42:17.606Z,14.99
2023-05-20T02:44:44.518Z,14.87
2023-05-20T02:47:11.730Z,14.84
2023-05-20T02:49:38.610Z,14.89
2023-05-20T02:52:05.706Z,14.85
2023-05-20T02:54:32.586Z,14.82
2023-05-20T02:56:59.408Z,14.77
2023-05-20T02:59:26.375Z,14.78
2023-05-20T03:01:53.254Z,14.88
2023-05-20T03:04:21.955Z,14.87
2023-05-20T03:06:48.860Z,14.82
2023-05-20T03:09:15.781Z,14.80
2023-05-20T03:11:42.665Z,14.82
2023-05-20T03:14:09.574Z,14.75
2023-05-20T03:16:36.734Z,14.92
2023-05-20T03:19:03.724Z,15.04
2023-05-20T03:21:30.576Z,14.79
2023-05-20T03:23:57.447Z,14.79
2023-05-20T03:26:25.881Z,14.77
2023-05-20T03:28:52.742Z,14.68
2023-05-20T03:31:19.732Z,14.72
2023-05-20T03:33:46.730Z,14.91
2023-05-20T03:36:13.625Z,14.86
2023-05-20T03:38:40.583Z,14.81
2023-05-20T03:41:07.515Z,14.59
2023-05-20T03:43:34.376Z,14.54
2023-05-20T03:46:01.219Z,14.63
2023-05-20T03:48:28.113Z,14.64
2023-05-20T03:50:54.956Z,14.60
2023-05-20T03:53:21.848Z,14.52
2023-05-20T03:55:48.762Z,14.77
2023-05-20T03:58:15.835Z,14.57
2023-05-20T04:00:42.782Z,14.47
2023-05-20T04:03:10.788Z,14.58
2023-05-20T04:05:37.896Z,14.66
2023-05-20T04:08:05.360Z,14.77
2023-05-20T04:10:33.934Z,14.60
2023-05-20T04:13:00.888Z,14.56
2023-05-20T04:15:29.898Z,14.50
2023-05-20T04:17:56.927Z,14.58
2023-05-20T04:20:24.701Z,14.53
2023-05-20T04:22:52.565Z,14.54
2023-05-20T04:25:19.555Z,14.61
2023-05-20T04:27:46.675Z,14.63
2023-05-20T04:30:14.130Z,14.49
2023-05-20T04:32:41.838Z,14.50
2023-05-20T04:35:12.230Z,14.46
2023-05-20T04:37:39.339Z,14.35
2023-05-20T04:40:09.634Z,14.31
2023-05-20T04:42:37.957Z,14.37
2023-05-20T04:45:06.138Z,14.23
2023-05-20T04:47:39.312Z,14.14
2023-05-20T04:50:10.873Z,14.24
2023-05-20T04:52:40.337Z,14.25
2023-05-20T04:55:10.571Z,14.15
2023-05-20T04:57:42.633Z,14.03
2023-05-20T05:00:11.423Z,14.06
2023-05-20T05:02:38.694Z,14.08
2023-05-20T05:05:06.320Z,14.01
2023-05-20T05:07:33.463Z,14.09
2023-05-20T05:10:00.378Z,14.11
2023-05-20T05:12:27.274Z,14.03
2023-05-20T05:14:54.153Z,13.97
2023-05-20T05:17:21.053Z,14.06
2023-05-20T05:19:47.985Z,14.12
2023-05-20T05:22:14.910Z,14.08
2023-05-20T05:24:41.880Z,14.03
2023-05-20T05:27:08.807Z,14.09
2023-05-20T05:29:35.728Z,14.09
2023-05-20T05:32:02.678Z,14.09
2023-05-20T05:34:29.629Z,14.05
2023-05-20T05:36:56.520Z,14.13
2023-05-20T05:39:23.409Z,14.20
2023-05-20T05:41:50.361Z,14.20
2023-05-20T05:44:17.233Z,14.19
2023-05-20T05:46:44.114Z,14.25
2023-05-20T05:49:11.144Z,14.45
2023-05-20T05:51:39.083Z,14.50
2023-05-20T05:54:06.114Z,14.61
2023-05-20T05:56:33.009Z,14.56
2023-05-20T05:58:59.879Z,14.72
2023-05-20T06:01:26.835Z,14.77
2023-05-20T06:03:54.244Z,14.69
2023-05-20T06:06:21.230Z,14.74
2023-05-20T06:08:48.145Z,14.70
2023-05-20T06:11:15.009Z,14.82
2023-05-20T06:13:41.883Z,14.86
2023-05-20T06:16:08.867Z,14.86
2023-05-20T06:18:35.778Z,14.93
2023-05-20T06:21:03.428Z,14.89
2023-05-20T06:23:30.777Z,15.02
2023-05-20T06:26:01.042Z,14.96
2023-05-20T06:28:28.262Z,14.97
2023-05-20T06:30:55.861Z,15.02
2023-05-20T06:33:26.374Z,15.09
2023-05-20T06:35:56.663Z,15.17
2023-05-20T06:38:23.595Z,15.15
2023-05-20T06:40:51.552Z,15.20
2023-05-20T06:43:18.964Z,15.31
2023-05-20T06:45:45.951Z,15.33
2023-05-20T06:48:12.846Z,15.40
2023-05-20T06:50:39.752Z,15.48
2023-05-20T06:53:06.763Z,15.54
2023-05-20T06:55:33.803Z,15.59
2023-05-20T06:58:00.905Z,15.57
2023-05-20T07:00:27.791Z,15.58
2023-05-20T07:02:54.722Z,15.70
2023-05-20T07:05:21.572Z,15.77
2023-05-20T07:07:48.437Z,15.85
2023-05-20T07:10:15.379Z,15.89
2023-05-20T07:12:42.333Z,15.92
2023-05-20T07:15:09.561Z,15.99
2023-05-20T07:17:36.542Z,16.02
2023-05-20T07:20:04.449Z,16.06
2023-05-20T07:22:31.424Z,16.10
2023-05-20T07:24:59.582Z,16.17
2023-05-20T07:27:26.422Z,16.21
2023-05-20T07:29:53.372Z,16.30
2023-05-20T07:32:20.360Z,16.36
2023-05-20T07:34:47.334Z,16.42
2023-05-20T07:37:14.956Z,16.46
2023-05-20T07:39:41.845Z,16.56
2023-05-20T07:42:08.757Z,16.61
2023-05-20T07:44:35.625Z,16.67
2023-05-20T07:47:03.009Z,16.71
2023-05-20T07:49:30.144Z,16.78
2023-05-20T07:51:57.186Z,16.78
2023-05-20T07:54:24.229Z,16.81
2023-05-20T07:56:51.120Z,16.86
2023-05-20T07:59:18.015Z,16.87
2023-05-20T08:01:44.913Z,16.91
2023-05-20T08:04:11.930Z,16.98
2023-05-20T08:06:39.946Z,17.01
2023-05-20T08:09:07.593Z,17.06
2023-05-20T08:11:34.480Z,17.10
2023-05-20T08:14:02.287Z,17.17
2023-05-20T08:16:29.309Z,17.23
2023-05-20T08:18:56.217Z,17.26
2023-05-20T08:21:23.142Z,17.28
2023-05-20T08:23:50.286Z,17.35
2023-05-20T08:26:17.149Z,17.38
2023-05-20T08:28:44.171Z,17.41
2023-05-20T08:31:11.089Z,17.46
2023-05-20T08:33:38.083Z,17.51
2023-05-20T08:36:05.099Z,17.53
2023-05-20T08:38:31.961Z,17.59
2023-05-20T08:40:58.843Z,17.65
2023-05-20T08:43:26.231Z,17.71
2023-05-20T08:45:53.308Z,17.76
2023-05-20T08:48:20.859Z,17.81
2023-05-20T08:50:52.972Z,17.87
2023-05-20T08:53:21.227Z,17.91
2023-05-20T08:55:55.312Z,17.96
2023-05-20T08:58:23.601Z,18.00
2023-05-20T09:00:53.357Z,18.06
2023-05-20T09:03:24.154Z,18.11
2023-05-20T09:05:50.995Z,18.15
2023-05-20T09:08:17.916Z,18.18
2023-05-20T09:10:44.835Z,18.23
2023-05-20T09:13:12.246Z,18.26
2023-05-20T09:15:39.402Z,18.30
2023-05-20T09:18:07.637Z,18.36
2023-05-20T09:20:37.541Z,18.41
2023-05-20T09:23:06.577Z,18.46
2023-05-20T09:25:34.141Z,18.50
2023-05-20T09:28:01.274Z,18.55
2023-05-20T09:30:28.254Z,18.58
2023-05-20T09:32:56.581Z,18.62
2023-05-20T09:35:24.315Z,18.65
2023-05-20T09:37:56.227Z,18.68
2023-05-20T09:40:26.389Z,18.72
2023-05-20T09:42:54.056Z,18.76
2023-05-20T09:45:24.890Z,18.79
2023-05-20T09:47:53.480Z,18.82
2023-05-20T09:50:21.853Z,18.83
2023-05-20T09:52:50.006Z,18.87
2023-05-20T09:55:18.189Z,18.90
2023-05-20T09:57:46.709Z,18.92
2023-05-20T10:00:15.800Z,18.94
2023-05-20T10:02:47.809Z,18.98
2023-05-20T10:05:18.830Z,19.01
2023-05-20T10:07:49.907Z,19.03
2023-05-20T10:10:26.515Z,19.06
2023-05-20T10:13:04.181Z,19.11
2023-05-20T10:16:05.769Z,19.15
2023-05-20T10:18:53.834Z,19.20
2023-05-20T10:21:26.265Z,19.24
2023-05-20T10:23:53.216Z,19.27
2023-05-20T10:26:20.865Z,19.31
2023-05-20T10:28:47.797Z,19.32
2023-05-20T10:31:21.973Z,19.36
2023-05-20T10:33:49.414Z,19.38
2023-05-20T10:36:45.224Z,19.41
2023-05-20T10:39:17.024Z,19.43
2023-05-20T10:41:43.933Z,19.46
2023-05-20T10:44:10.885Z,19.49
2023-05-20T10:46:53.794Z,19.52
2023-05-20T10:49:27.434Z,19.58
2023-05-20T10:51:54.976Z,19.63
2023-05-20T10:54:23.250Z,19.67
2023-05-20T10:56:54.129Z,19.74
2023-05-20T10:59:22.228Z,19.78
2023-05-20T11:01:49.522Z,19.81
2023-05-20T11:04:17.638Z,19.83
2023-05-20T11:06:53.726Z,19.84
2023-05-20T11:09:20.775Z,19.86
2023-05-20T11:11:47.820Z,19.88
2023-05-20T11:14:15.290Z,19.92
2023-05-20T11:16:43.045Z,19.95
2023-05-20T11:19:19.160Z,19.98
2023-05-20T11:21:47.145Z,20.03
2023-05-20T11:24:14.582Z,20.06
2023-05-20T11:26:41.555Z,20.09
2023-05-20T11:29:08.541Z,20.12
2023-05-20T11:31:38.318Z,20.14
2023-05-20T11:34:05.381Z,20.18
2023-05-20T11:36:32.679Z,20.19
2023-05-20T11:39:00.454Z,20.23
2023-05-20T11:41:28.046Z,20.24
2023-05-20T11:43:59.440Z,20.27
2023-05-20T11:46:27.428Z,20.34
2023-05-20T11:48:55.265Z,20.33
2023-05-20T11:51:27.735Z,20.36
2023-05-20T11:54:00.505Z,20.41
2023-05-20T11:56:33.440Z,20.48
2023-05-20T11:59:01.490Z,20.50
2023-05-20T12:01:31.278Z,20.54
2023-05-20T12:03:58.347Z,20.55
2023-05-20T12:06:25.387Z,20.60
2023-05-20T12:08:52.267Z,20.64
2023-05-20T12:11:19.200Z,20.70
2023-05-20T12:13:46.190Z,20.71
2023-05-20T12:16:13.245Z,20.68
2023-05-20T12:18:40.183Z,20.64
2023-05-20T12:21:07.055Z,20.57
2023-05-20T12:23:34.486Z,20.51
2023-05-20T12:26:01.589Z,20.55
2023-05-20T12:28:28.405Z,20.62
2023-05-20T12:30:55.289Z,20.68
2023-05-20T12:33:22.433Z,20.75
2023-05-20T12:35:49.381Z,20.73
2023-05-20T12:38:16.269Z,20.72
2023-05-20T12:40:43.172Z,20.74
2023-05-20T12:43:10.378Z,20.69
2023-05-20T12:45:37.325Z,20.73
2023-05-20T12:48:06.214Z,20.76
2023-05-20T12:50:33.362Z,20.79
2023-05-20T12:53:00.366Z,20.84
2023-05-20T12:55:27.607Z,20.91
2023-05-20T12:57:56.396Z,20.95
2023-05-20T13:00:23.369Z,21.01
2023-05-20T13:02:50.615Z,21.06
2023-05-20T13:05:17.594Z,21.07
2023-05-20T13:07:44.810Z,21.07
2023-05-20T13:10:11.952Z,21.05
2023-05-20T13:12:38.894Z,21.04
2023-05-20T13:15:06.387Z,21.12
2023-05-20T13:17:33.304Z,21.13
2023-05-20T13:20:00.314Z,21.18
2023-05-20T13:22:27.184Z,21.19
2023-05-20T13:24:54.025Z,21.18
2023-05-20T13:27:20.907Z,21.20
2023-05-20T13:29:47.745Z,21.20
2023-05-20T13:32:14.638Z,21.26
2023-05-20T13:34:41.598Z,21.35
2023-05-20T13:37:08.582Z,21.42
2023-05-20T13:39:36.547Z,21.41
2023-05-20T13:42:04.621Z,21.37
2023-05-20T13:44:32.642Z,21.32
2023-05-20T13:46:59.941Z,21.31
2023-05-20T13:49:26.975Z,21.30
2023-05-20T13:51:53.852Z,21.29
2023-05-20T13:54:21.779Z,21.28
2023-05-20T13:56:48.932Z,21.29
2023-05-20T13:59:16.036Z,21.35
2023-05-20T14:01:45.444Z,21.39
2023-05-20T14:04:13.002Z,21.39
2023-05-20T14:06:40.793Z,21.41
2023-05-20T14:09:11.050Z,21.43
2023-05-20T14:11:37.995Z,21.47
2023-05-20T14:14:04.977Z,21.49
2023-05-20T14:16:32.992Z,21.53
2023-05-20T14:19:00.027Z,21.47
2023-05-20T14:21:26.934Z,21.42
2023-05-20T14:23:53.956Z,21.38
2023-05-20T14:26:21.909Z,21.39
2023-05-20T14:28:48.868Z,21.33
2023-05-20T14:31:16.151Z,21.34
2023-05-20T14:33:43.133Z,21.37
2023-05-20T14:36:10.709Z,21.36
2023-05-20T14:38:37.666Z,21.35
2023-05-20T14:41:04.638Z,21.29
2023-05-20T14:43:32.393Z,21.27
2023-05-20T14:45:59.352Z,21.25
2023-05-20T14:48:26.317Z,21.24
2023-05-20T14:50:53.419Z,21.30
2023-05-20T14:53:20.562Z,21.32
2023-05-20T14:55:47.379Z,21.31
2023-05-20T14:58:14.350Z,21.28
2023-05-20T15:00:42.465Z,21.27
2023-05-20T15:03:09.543Z,21.26
2023-05-20T15:05:36.709Z,21.25
2023-05-20T15:08:04.012Z,21.19
2023-05-20T15:10:30.867Z,21.23
2023-05-20T15:12:57.730Z,21.22
2023-05-20T15:15:24.603Z,21.18
2023-05-20T15:17:51.558Z,21.17
2023-05-20T15:20:18.507Z,21.17
2023-05-20T15:22:48.512Z,21.19
2023-05-20T15:25:15.587Z,21.19
2023-05-20T15:27:43.006Z,21.16
2023-05-20T15:30:10.537Z,21.18
2023-05-20T15:32:37.589Z,21.21
2023-05-20T15:35:04.977Z,21.21
2023-05-20T15:37:31.851Z,21.18
2023-05-20T15:39:58.802Z,21.14
2023-05-20T15:42:25.796Z,21.12
2023-05-20T15:44:52.865Z,21.09
2023-05-20T15:47:19.741Z,21.05
2023-05-20T15:49:46.735Z,21.04
2023-05-20T15:52:14.270Z,21.01
2023-05-20T15:54:41.318Z,21.02
2023-05-20T15:57:08.228Z,21.01
2023-05-20T15:59:35.157Z,21.04
2023-05-20T16:02:02.071Z,21.00
2023-05-20T16:04:29.229Z,21.00
2023-05-20T16:06:56.156Z,20.99
2023-05-20T16:09:22.962Z,21.00
2023-05-20T16:11:49.872Z,20.94
2023-05-20T16:14:16.831Z,20.90
2023-05-20T16:16:43.754Z,20.88
2023-05-20T16:19:10.651Z,20.90
2023-05-20T16:21:37.586Z,20.89
2023-05-20T16:24:04.857Z,20.87
2023-05-20T16:26:31.755Z,20.84
2023-05-20T16:28:58.625Z,20.87
2023-05-20T16:31:26.792Z,20.87
2023-05-20T16:33:53.785Z,20.81
2023-05-20T16:36:21.732Z,20.75
2023-05-20T16:38:48.623Z,20.71
2023-05-20T16:41:16.412Z,20.69
2023-05-20T16:43:43.408Z,20.64
2023-05-20T16:46:10.453Z,20.63
2023-05-20T16:48:37.365Z,20.59
2023-05-20T16:51:04.463Z,20.54
2023-05-20T16:53:31.452Z,20.52
2023-05-20T16:55:58.422Z,20.52
2023-05-20T16:58:25.324Z,20.48
2023-05-20T17:00:52.313Z,20.45
2023-05-20T17:03:19.490Z,20.43
2023-05-20T17:05:46.596Z,20.39
2023-05-20T17:08:13.522Z,20.39
2023-05-20T17:10:40.409Z,20.36
2023-05-20T17:13:07.238Z,20.35
2023-05-20T17:15:37.262Z,20.34
2023-05-20T17:18:04.285Z,20.29
2023-05-20T17:20:31.643Z,20.27
2023-05-20T17:22:58.721Z,20.26
2023-05-20T17:25:25.676Z,20.29
2023-05-20T17:27:52.576Z,20.28
2023-05-20T17:30:19.607Z,20.25
2023-05-20T17:32:46.543Z,20.22
2023-05-20T17:35:13.456Z,20.18
2023-05-20T17:37:40.403Z,20.16
2023-05-20T17:40:07.808Z,20.11
2023-05-20T17:42:34.672Z,20.08
2023-05-20T17:45:01.597Z,20.07
2023-05-20T17:47:28.437Z,20.03
2023-05-20T17:49:55.328Z,20.00
2023-05-20T17:52:22.300Z,19.97
2023-05-20T17:54:49.191Z,19.96
2023-05-20T17:57:16.489Z,19.93
2023-05-20T17:59:45.642Z,19.83
2023-05-20T18:02:12.714Z,19.81
2023-05-20T18:04:39.602Z,19.79
2023-05-20T18:07:07.690Z,19.75
2023-05-20T18:09:34.582Z,19.73
2023-05-20T18:12:01.400Z,19.71
2023-05-20T18:14:28.279Z,19.70
2023-05-20T18:16:55.148Z,19.65
2023-05-20T18:19:22.056Z,19.59
2023-05-20T18:21:49.032Z,19.58
2023-05-20T18:24:16.955Z,19.52
2023-05-20T18:26:44.024Z,19.49
2023-05-20T18:29:12.522Z,19.49
2023-05-20T18:31:41.351Z,19.46
2023-05-20T18:34:09.517Z,19.43
2023-05-20T18:36:37.486Z,19.42
2023-05-20T18:39:05.065Z,19.35
2023-05-20T18:41:45.938Z,19.32
2023-05-20T18:44:14.875Z,19.26
2023-05-20T18:46:42.055Z,19.27
2023-05-20T18:49:10.820Z,19.20
2023-05-20T18:51:41.052Z,19.20
2023-05-20T18:54:08.451Z,19.16
2023-05-20T18:56:35.963Z,19.09
2023-05-20T18:59:03.041Z,18.98
2023-05-20T19:01:30.153Z,18.91
2023-05-20T19:03:57.193Z,18.83
2023-05-20T19:06:24.103Z,18.78
2023-05-20T19:08:51.113Z,18.75
2023-05-20T19:11:18.162Z,18.69
2023-05-20T19:13:45.012Z,18.67
2023-05-20T19:16:11.904Z,18.63
2023-05-20T19:18:38.988Z,18.57
2023-05-20T19:21:06.046Z,18.65
2023-05-20T19:23:32.938Z,18.53
2023-05-20T19:25:59.900Z,18.52
2023-05-20T19:28:26.885Z,18.54
2023-05-20T19:30:54.008Z,18.52
2023-05-20T19:33:21.618Z,18.44
2023-05-20T19:35:48.715Z,18.38
2023-05-20T19:38:15.865Z,18.34
2023-05-20T19:40:44.287Z,18.21
2023-05-20T19:43:11.466Z,18.26
2023-05-20T19:45:38.566Z,18.21
2023-05-20T19:48:06.221Z,18.12
2023-05-20T19:50:33.577Z,18.07
2023-05-20T19:53:01.679Z,18.08
2023-05-20T19:55:28.684Z,17.99
2023-05-20T19:57:55.883Z,17.96
2023-05-20T20:00:23.029Z,17.96
2023-05-20T20:02:50.158Z,17.91
2023-05-20T20:05:17.336Z,17.90
2023-05-20T20:07:44.307Z,17.86
2023-05-20T20:10:11.581Z,17.80
2023-05-20T20:12:38.496Z,17.74
2023-05-20T20:15:05.891Z,17.65
2023-05-20T20:17:33.996Z,17.64
2023-05-20T20:20:01.357Z,17.65
2023-05-20T20:22:28.256Z,17.63
2023-05-20T20:24:55.303Z,17.60
2023-05-20T20:27:24.049Z,17.64
2023-05-20T20:29:51.512Z,17.57
2023-05-20T20:32:18.745Z,17.50
2023-05-20T20:34:46.256Z,17.52
2023-05-20T20:37:15.336Z,17.52
2023-05-20T20:39:43.112Z,17.47
2023-05-20T20:42:10.803Z,17.48
2023-05-20T20:44:37.708Z,17.44
2023-05-20T20:47:05.329Z,17.36
2023-05-20T20:49:32.404Z,17.21
2023-05-20T20:51:59.643Z,17.30
2023-05-20T20:54:26.636Z,17.25
2023-05-20T20:56:56.835Z,17.27
2023-05-20T20:59:26.703Z,17.24
2023-05-20T21:01:54.244Z,17.21
2023-05-20T21:04:21.325Z,17.20
2023-05-20T21:06:48.307Z,17.16
2023-05-20T21:09:15.451Z,17.08
2023-05-20T21:11:42.678Z,17.08
2023-05-20T21:14:10.528Z,17.12
2023-05-20T21:16:37.507Z,17.20
2023-05-20T21:19:04.905Z,17.13
2023-05-20T21:21:31.961Z,17.11
2023-05-20T21:23:59.029Z,17.02
2023-05-20T21:26:26.744Z,16.93
2023-05-20T21:28:53.601Z,16.97
2023-05-20T21:31:20.658Z,16.90
2023-05-20T21:33:47.664Z,16.94
2023-05-20T21:36:14.619Z,16.97
2023-05-20T21:38:41.580Z,16.94
2023-05-20T21:41:08.882Z,16.88
2023-05-20T21:43:37.274Z,16.93
2023-05-20T21:46:04.277Z,16.89
2023-05-20T21:48:31.156Z,16.87
2023-05-20T21:50:58.072Z,16.82
2023-05-20T21:53:25.029Z,16.75
2023-05-20T21:55:52.094Z,16.83
2023-05-20T21:58:18.996Z,16.80
2023-05-20T22:00:46.186Z,16.79
2023-05-20T22:03:13.317Z,16.76
2023-05-20T22:05:41.381Z,16.73
2023-05-20T22:08:08.595Z,16.72
2023-05-20T22:10:36.714Z,16.81
2023-05-20T22:13:03.622Z,16.80
2023-05-20T22:15:31.047Z,16.66
2023-05-20T22:17:58.834Z,16.72
2023-05-20T22:20:25.929Z,16.65
2023-05-20T22:22:52.803Z,16.65
2023-05-20T22:25:19.858Z,16.62
2023-05-20T22:27:47.269Z,16.57
2023-05-20T22:30:14.250Z,16.56
2023-05-20T22:32:41.479Z,16.59
2023-05-20T22:35:09.191Z,16.53
2023-05-20T22:37:36.187Z,16.59
2023-05-20T22:40:04.124Z,16.49
2023-05-20T22:42:30.998Z,16.43
2023-05-20T22:44:57.879Z,16.57
2023-05-20T22:47:24.903Z,16.60
2023-05-20T22:49:51.929Z,16.49
2023-05-20T22:52:18.872Z,16.38
2023-05-20T22:54:45.809Z,16.39
2023-05-20T22:57:12.930Z,16.39
2023-05-20T22:59:40.535Z,16.42
2023-05-20T23:02:08.050Z,16.42
2023-05-20T23:04:35.067Z,16.35
2023-05-20T23:07:01.919Z,16.44
2023-05-20T23:09:28.797Z,16.37
2023-05-20T23:11:55.731Z,16.37
2023-05-20T23:14:24.147Z,16.37
2023-05-20T23:16:51.277Z,16.37
2023-05-20T23:19:18.225Z,16.40
2023-05-20T23:21:45.282Z,16.39
2023-05-20T23:24:12.161Z,16.36
2023-05-20T23:26:39.231Z,16.28
2023-05-20T23:29:06.511Z,16.30
2023-05-20T23:31:33.922Z,16.29
2023-05-20T23:34:03.850Z,16.35
2023-05-20T23:36:35.477Z,16.35
2023-05-20T23:39:02.997Z,16.30
2023-05-20T23:41:29.882Z,16.32
2023-05-20T23:43:56.774Z,16.23
2023-05-20T23:46:23.710Z,16.27
2023-05-20T23:48:50.673Z,16.20
2023-05-20T23:51:17.732Z,16.18
2023-05-20T23:53:45.174Z,16.17
2023-05-20T23:56:12.083Z,16.10
2023-05-20T23:58:39.012Z,16.17
